sensor_id;sensor_type;location;lat;lon;timestamp;P1;durP1;ratioP1;P2;durP2;ratioP2
75459;SDS011;64039;53.060;9.342;2022-10-15T00:00:47;17.88;;;12.35;;
75459;SDS011;64039;53.060;9.342;2022-10-15T00:03:13;20.45;;;13.40;;
75459;SDS011;64039;53.060;9.342;2022-10-15T00:05:43;19.23;;;12.57;;
75459;SDS011;64039;53.060;9.342;2022-10-15T00:08:10;20.88;;;13.20;;
75459;SDS011;64039;53.060;9.342;2022-10-15T00:10:36;20.38;;;14.20;;
75459;SDS011;64039;53.060;9.342;2022-10-15T00:13:02;25.88;;;13.80;;
75459;SDS011;64039;53.060;9.342;2022-10-15T00:15:29;18.85;;;13.57;;
75459;SDS011;64039;53.060;9.342;2022-10-15T00:17:55;20.67;;;14.45;;
75459;SDS011;64039;53.060;9.342;2022-10-15T00:20:21;21.38;;;13.50;;
75459;SDS011;64039;53.060;9.342;2022-10-15T00:22:47;22.45;;;14.48;;
75459;SDS011;64039;53.060;9.342;2022-10-15T00:25:15;22.02;;;14.52;;
75459;SDS011;64039;53.060;9.342;2022-10-15T00:27:40;20.92;;;14.13;;
75459;SDS011;64039;53.060;9.342;2022-10-15T00:30:10;24.23;;;14.93;;
75459;SDS011;64039;53.060;9.342;2022-10-15T00:32:36;21.55;;;14.35;;
75459;SDS011;64039;53.060;9.342;2022-10-15T00:35:02;22.45;;;14.65;;
75459;SDS011;64039;53.060;9.342;2022-10-15T00:37:28;22.10;;;14.85;;
75459;SDS011;64039;53.060;9.342;2022-10-15T00:39:53;22.13;;;13.90;;
75459;SDS011;64039;53.060;9.342;2022-10-15T00:42:22;23.27;;;14.25;;
75459;SDS011;64039;53.060;9.342;2022-10-15T00:47:21;23.08;;;13.88;;
75459;SDS011;64039;53.060;9.342;2022-10-15T00:50:12;22.45;;;14.32;;
75459;SDS011;64039;53.060;9.342;2022-10-15T00:52:59;20.27;;;13.57;;
75459;SDS011;64039;53.060;9.342;2022-10-15T00:55:28;19.08;;;12.90;;
75459;SDS011;64039;53.060;9.342;2022-10-15T00:58:00;22.38;;;13.68;;
75459;SDS011;64039;53.060;9.342;2022-10-15T01:00:34;22.55;;;13.38;;
75459;SDS011;64039;53.060;9.342;2022-10-15T01:03:00;23.70;;;14.27;;
75459;SDS011;64039;53.060;9.342;2022-10-15T01:05:28;22.02;;;14.25;;
75459;SDS011;64039;53.060;9.342;2022-10-15T01:07:55;23.20;;;13.55;;
75459;SDS011;64039;53.060;9.342;2022-10-15T01:10:26;22.65;;;15.05;;
75459;SDS011;64039;53.060;9.342;2022-10-15T01:13:21;23.50;;;14.80;;
75459;SDS011;64039;53.060;9.342;2022-10-15T01:16:26;25.65;;;15.40;;
75459;SDS011;64039;53.060;9.342;2022-10-15T01:27:29;23.00;;;14.10;;
75459;SDS011;64039;53.060;9.342;2022-10-15T01:35:25;22.87;;;14.60;;
75459;SDS011;64039;53.060;9.342;2022-10-15T01:38:02;25.27;;;15.55;;
75459;SDS011;64039;53.060;9.342;2022-10-15T01:43:14;22.73;;;14.25;;
75459;SDS011;64039;53.060;9.342;2022-10-15T01:45:47;24.20;;;14.98;;
75459;SDS011;64039;53.060;9.342;2022-10-15T01:48:21;24.17;;;15.00;;
75459;SDS011;64039;53.060;9.342;2022-10-15T01:50:52;22.17;;;14.02;;
75459;SDS011;64039;53.060;9.342;2022-10-15T01:53:22;24.13;;;15.05;;
75459;SDS011;64039;53.060;9.342;2022-10-15T01:55:52;27.73;;;14.85;;
75459;SDS011;64039;53.060;9.342;2022-10-15T01:58:22;31.88;;;17.92;;
75459;SDS011;64039;53.060;9.342;2022-10-15T02:00:48;32.58;;;18.77;;
75459;SDS011;64039;53.060;9.342;2022-10-15T02:03:16;32.47;;;18.38;;
75459;SDS011;64039;53.060;9.342;2022-10-15T02:08:29;30.58;;;17.60;;
75459;SDS011;64039;53.060;9.342;2022-10-15T02:11:13;33.63;;;17.75;;
75459;SDS011;64039;53.060;9.342;2022-10-15T02:13:49;31.77;;;17.50;;
75459;SDS011;64039;53.060;9.342;2022-10-15T02:21:41;34.95;;;19.77;;
75459;SDS011;64039;53.060;9.342;2022-10-15T02:24:16;40.33;;;20.17;;
75459;SDS011;64039;53.060;9.342;2022-10-15T02:26:59;38.40;;;21.42;;
75459;SDS011;64039;53.060;9.342;2022-10-15T02:29:33;40.97;;;22.30;;
75459;SDS011;64039;53.060;9.342;2022-10-15T02:32:05;36.13;;;20.65;;
75459;SDS011;64039;53.060;9.342;2022-10-15T02:34:44;40.20;;;22.63;;
75459;SDS011;64039;53.060;9.342;2022-10-15T02:37:18;41.60;;;22.48;;
75459;SDS011;64039;53.060;9.342;2022-10-15T02:39:48;40.97;;;22.00;;
75459;SDS011;64039;53.060;9.342;2022-10-15T02:42:19;40.30;;;20.88;;
75459;SDS011;64039;53.060;9.342;2022-10-15T02:44:54;41.25;;;21.60;;
75459;SDS011;64039;53.060;9.342;2022-10-15T02:47:22;45.92;;;23.17;;
75459;SDS011;64039;53.060;9.342;2022-10-15T02:49:50;44.30;;;23.38;;
75459;SDS011;64039;53.060;9.342;2022-10-15T02:52:16;45.03;;;22.95;;
75459;SDS011;64039;53.060;9.342;2022-10-15T02:54:43;47.53;;;23.77;;
75459;SDS011;64039;53.060;9.342;2022-10-15T02:57:10;48.90;;;23.60;;
75459;SDS011;64039;53.060;9.342;2022-10-15T02:59:35;43.65;;;22.80;;
75459;SDS011;64039;53.060;9.342;2022-10-15T03:02:03;45.45;;;22.80;;
75459;SDS011;64039;53.060;9.342;2022-10-15T03:04:29;48.50;;;23.40;;
75459;SDS011;64039;53.060;9.342;2022-10-15T03:06:54;49.20;;;23.50;;
75459;SDS011;64039;53.060;9.342;2022-10-15T03:09:20;48.92;;;23.08;;
75459;SDS011;64039;53.060;9.342;2022-10-15T03:11:45;44.70;;;22.00;;
75459;SDS011;64039;53.060;9.342;2022-10-15T03:14:10;49.47;;;23.80;;
75459;SDS011;64039;53.060;9.342;2022-10-15T03:16:36;45.97;;;22.98;;
75459;SDS011;64039;53.060;9.342;2022-10-15T03:19:02;50.78;;;23.52;;
75459;SDS011;64039;53.060;9.342;2022-10-15T03:21:27;50.75;;;23.05;;
75459;SDS011;64039;53.060;9.342;2022-10-15T03:23:55;49.33;;;22.98;;
75459;SDS011;64039;53.060;9.342;2022-10-15T03:26:21;48.30;;;22.58;;
75459;SDS011;64039;53.060;9.342;2022-10-15T03:28:46;46.35;;;23.02;;
75459;SDS011;64039;53.060;9.342;2022-10-15T03:31:15;42.85;;;21.42;;
75459;SDS011;64039;53.060;9.342;2022-10-15T03:33:40;50.47;;;23.17;;
75459;SDS011;64039;53.060;9.342;2022-10-15T03:36:06;48.50;;;23.73;;
75459;SDS011;64039;53.060;9.342;2022-10-15T03:38:32;44.50;;;21.70;;
75459;SDS011;64039;53.060;9.342;2022-10-15T03:40:57;43.25;;;21.85;;
75459;SDS011;64039;53.060;9.342;2022-10-15T03:43:23;42.08;;;21.05;;
75459;SDS011;64039;53.060;9.342;2022-10-15T03:45:50;48.88;;;22.50;;
75459;SDS011;64039;53.060;9.342;2022-10-15T03:48:16;46.10;;;22.05;;
75459;SDS011;64039;53.060;9.342;2022-10-15T03:50:41;47.83;;;22.33;;
75459;SDS011;64039;53.060;9.342;2022-10-15T03:53:06;43.92;;;21.08;;
75459;SDS011;64039;53.060;9.342;2022-10-15T03:55:32;42.30;;;19.75;;
75459;SDS011;64039;53.060;9.342;2022-10-15T03:57:57;40.35;;;20.45;;
75459;SDS011;64039;53.060;9.342;2022-10-15T04:00:23;44.35;;;21.55;;
75459;SDS011;64039;53.060;9.342;2022-10-15T04:02:48;42.80;;;19.90;;
75459;SDS011;64039;53.060;9.342;2022-10-15T04:05:14;45.50;;;21.77;;
75459;SDS011;64039;53.060;9.342;2022-10-15T04:07:39;40.17;;;20.30;;
75459;SDS011;64039;53.060;9.342;2022-10-15T04:10:07;41.90;;;21.23;;
75459;SDS011;64039;53.060;9.342;2022-10-15T04:12:33;41.75;;;20.23;;
75459;SDS011;64039;53.060;9.342;2022-10-15T04:14:58;45.10;;;21.85;;
75459;SDS011;64039;53.060;9.342;2022-10-15T04:17:23;42.97;;;20.33;;
75459;SDS011;64039;53.060;9.342;2022-10-15T04:19:49;42.42;;;20.10;;
75459;SDS011;64039;53.060;9.342;2022-10-15T04:22:14;40.22;;;18.77;;
75459;SDS011;64039;53.060;9.342;2022-10-15T04:24:40;41.38;;;19.73;;
75459;SDS011;64039;53.060;9.342;2022-10-15T04:27:05;40.85;;;19.92;;
75459;SDS011;64039;53.060;9.342;2022-10-15T04:29:31;40.15;;;19.48;;
75459;SDS011;64039;53.060;9.342;2022-10-15T04:31:57;41.08;;;19.73;;
75459;SDS011;64039;53.060;9.342;2022-10-15T04:34:22;36.83;;;18.95;;
75459;SDS011;64039;53.060;9.342;2022-10-15T04:36:47;41.92;;;19.52;;
75459;SDS011;64039;53.060;9.342;2022-10-15T04:39:13;36.05;;;18.42;;
75459;SDS011;64039;53.060;9.342;2022-10-15T04:41:40;37.15;;;18.80;;
75459;SDS011;64039;53.060;9.342;2022-10-15T04:44:05;37.92;;;18.08;;
75459;SDS011;64039;53.060;9.342;2022-10-15T04:46:30;35.40;;;17.88;;
75459;SDS011;64039;53.060;9.342;2022-10-15T04:48:56;38.55;;;18.00;;
75459;SDS011;64039;53.060;9.342;2022-10-15T04:51:23;36.42;;;17.90;;
75459;SDS011;64039;53.060;9.342;2022-10-15T04:53:49;36.55;;;17.52;;
75459;SDS011;64039;53.060;9.342;2022-10-15T04:56:15;35.92;;;16.55;;
75459;SDS011;64039;53.060;9.342;2022-10-15T04:58:43;33.88;;;16.33;;
75459;SDS011;64039;53.060;9.342;2022-10-15T05:01:11;35.08;;;16.48;;
75459;SDS011;64039;53.060;9.342;2022-10-15T05:03:38;32.83;;;15.80;;
75459;SDS011;64039;53.060;9.342;2022-10-15T05:06:09;33.13;;;15.88;;
75459;SDS011;64039;53.060;9.342;2022-10-15T05:08:39;37.53;;;18.38;;
75459;SDS011;64039;53.060;9.342;2022-10-15T05:11:10;41.10;;;17.90;;
75459;SDS011;64039;53.060;9.342;2022-10-15T05:13:43;43.22;;;18.45;;
75459;SDS011;64039;53.060;9.342;2022-10-15T05:16:10;36.63;;;17.42;;
75459;SDS011;64039;53.060;9.342;2022-10-15T05:18:42;35.67;;;17.38;;
75459;SDS011;64039;53.060;9.342;2022-10-15T05:21:08;40.03;;;17.95;;
75459;SDS011;64039;53.060;9.342;2022-10-15T05:23:34;42.78;;;19.30;;
75459;SDS011;64039;53.060;9.342;2022-10-15T05:26:01;43.05;;;18.35;;
75459;SDS011;64039;53.060;9.342;2022-10-15T05:28:28;43.50;;;18.98;;
75459;SDS011;64039;53.060;9.342;2022-10-15T05:30:55;49.83;;;20.77;;
75459;SDS011;64039;53.060;9.342;2022-10-15T05:33:20;49.38;;;19.83;;
75459;SDS011;64039;53.060;9.342;2022-10-15T05:35:46;46.90;;;20.25;;
75459;SDS011;64039;53.060;9.342;2022-10-15T05:38:11;45.15;;;20.27;;
75459;SDS011;64039;53.060;9.342;2022-10-15T05:40:37;45.08;;;20.67;;
75459;SDS011;64039;53.060;9.342;2022-10-15T05:43:02;44.60;;;19.48;;
75459;SDS011;64039;53.060;9.342;2022-10-15T05:45:28;46.63;;;20.30;;
75459;SDS011;64039;53.060;9.342;2022-10-15T05:47:54;51.58;;;20.85;;
75459;SDS011;64039;53.060;9.342;2022-10-15T05:50:20;47.58;;;19.63;;
75459;SDS011;64039;53.060;9.342;2022-10-15T05:52:48;49.38;;;20.08;;
75459;SDS011;64039;53.060;9.342;2022-10-15T05:55:14;44.25;;;19.42;;
75459;SDS011;64039;53.060;9.342;2022-10-15T05:57:39;47.03;;;20.98;;
75459;SDS011;64039;53.060;9.342;2022-10-15T06:00:05;48.78;;;20.77;;
75459;SDS011;64039;53.060;9.342;2022-10-15T06:02:31;47.83;;;21.23;;
75459;SDS011;64039;53.060;9.342;2022-10-15T06:04:57;48.85;;;20.58;;
75459;SDS011;64039;53.060;9.342;2022-10-15T06:07:22;52.42;;;21.27;;
75459;SDS011;64039;53.060;9.342;2022-10-15T06:09:48;53.50;;;21.52;;
75459;SDS011;64039;53.060;9.342;2022-10-15T06:12:13;47.30;;;20.90;;
75459;SDS011;64039;53.060;9.342;2022-10-15T06:14:38;48.72;;;20.67;;
75459;SDS011;64039;53.060;9.342;2022-10-15T06:17:04;44.28;;;19.40;;
75459;SDS011;64039;53.060;9.342;2022-10-15T06:19:29;48.95;;;20.60;;
75459;SDS011;64039;53.060;9.342;2022-10-15T06:21:55;47.60;;;21.52;;
75459;SDS011;64039;53.060;9.342;2022-10-15T06:24:20;47.90;;;19.83;;
75459;SDS011;64039;53.060;9.342;2022-10-15T06:26:45;45.72;;;20.55;;
75459;SDS011;64039;53.060;9.342;2022-10-15T06:29:11;52.80;;;22.85;;
75459;SDS011;64039;53.060;9.342;2022-10-15T06:31:36;49.05;;;21.30;;
75459;SDS011;64039;53.060;9.342;2022-10-15T06:34:02;47.72;;;21.27;;
75459;SDS011;64039;53.060;9.342;2022-10-15T06:36:27;46.40;;;20.15;;
75459;SDS011;64039;53.060;9.342;2022-10-15T06:38:52;51.03;;;21.77;;
75459;SDS011;64039;53.060;9.342;2022-10-15T06:41:18;47.65;;;21.48;;
75459;SDS011;64039;53.060;9.342;2022-10-15T06:43:44;49.10;;;20.95;;
75459;SDS011;64039;53.060;9.342;2022-10-15T06:46:10;43.42;;;19.20;;
75459;SDS011;64039;53.060;9.342;2022-10-15T06:48:35;47.78;;;20.17;;
75459;SDS011;64039;53.060;9.342;2022-10-15T06:51:02;47.85;;;20.73;;
75459;SDS011;64039;53.060;9.342;2022-10-15T06:53:28;47.00;;;19.98;;
75459;SDS011;64039;53.060;9.342;2022-10-15T06:55:55;44.25;;;19.75;;
75459;SDS011;64039;53.060;9.342;2022-10-15T06:58:24;47.17;;;20.63;;
75459;SDS011;64039;53.060;9.342;2022-10-15T07:00:49;47.40;;;21.00;;
75459;SDS011;64039;53.060;9.342;2022-10-15T07:03:15;46.95;;;20.63;;
75459;SDS011;64039;53.060;9.342;2022-10-15T07:05:40;54.33;;;24.90;;
75459;SDS011;64039;53.060;9.342;2022-10-15T07:08:05;44.10;;;20.20;;
75459;SDS011;64039;53.060;9.342;2022-10-15T07:10:31;46.40;;;21.00;;
75459;SDS011;64039;53.060;9.342;2022-10-15T07:13:00;44.08;;;19.25;;
75459;SDS011;64039;53.060;9.342;2022-10-15T07:15:26;47.30;;;20.98;;
75459;SDS011;64039;53.060;9.342;2022-10-15T07:17:53;45.63;;;20.63;;
75459;SDS011;64039;53.060;9.342;2022-10-15T07:20:25;44.40;;;20.88;;
75459;SDS011;64039;53.060;9.342;2022-10-15T07:22:55;47.88;;;20.52;;
75459;SDS011;64039;53.060;9.342;2022-10-15T07:25:24;46.78;;;21.80;;
75459;SDS011;64039;53.060;9.342;2022-10-15T07:27:51;52.20;;;23.08;;
75459;SDS011;64039;53.060;9.342;2022-10-15T07:30:16;48.72;;;22.65;;
75459;SDS011;64039;53.060;9.342;2022-10-15T07:32:42;48.13;;;21.50;;
75459;SDS011;64039;53.060;9.342;2022-10-15T07:35:08;46.80;;;21.55;;
75459;SDS011;64039;53.060;9.342;2022-10-15T07:37:33;47.75;;;21.48;;
75459;SDS011;64039;53.060;9.342;2022-10-15T07:39:59;50.03;;;23.10;;
75459;SDS011;64039;53.060;9.342;2022-10-15T07:42:25;50.65;;;22.10;;
75459;SDS011;64039;53.060;9.342;2022-10-15T07:44:51;46.80;;;20.63;;
75459;SDS011;64039;53.060;9.342;2022-10-15T07:47:16;52.90;;;21.90;;
75459;SDS011;64039;53.060;9.342;2022-10-15T07:49:41;51.42;;;22.08;;
75459;SDS011;64039;53.060;9.342;2022-10-15T07:52:07;47.67;;;21.75;;
75459;SDS011;64039;53.060;9.342;2022-10-15T07:54:32;50.60;;;21.90;;
75459;SDS011;64039;53.060;9.342;2022-10-15T07:56:58;48.47;;;21.10;;
75459;SDS011;64039;53.060;9.342;2022-10-15T07:59:24;53.67;;;22.63;;
75459;SDS011;64039;53.060;9.342;2022-10-15T08:01:49;45.75;;;20.48;;
75459;SDS011;64039;53.060;9.342;2022-10-15T08:04:15;47.83;;;21.40;;
75459;SDS011;64039;53.060;9.342;2022-10-15T08:06:41;46.17;;;20.67;;
75459;SDS011;64039;53.060;9.342;2022-10-15T08:09:06;46.88;;;20.55;;
75459;SDS011;64039;53.060;9.342;2022-10-15T08:11:32;49.78;;;21.17;;
75459;SDS011;64039;53.060;9.342;2022-10-15T08:13:57;48.33;;;20.27;;
75459;SDS011;64039;53.060;9.342;2022-10-15T08:16:23;50.85;;;21.95;;
75459;SDS011;64039;53.060;9.342;2022-10-15T08:18:48;44.22;;;19.45;;
75459;SDS011;64039;53.060;9.342;2022-10-15T08:21:14;47.78;;;20.88;;
75459;SDS011;64039;53.060;9.342;2022-10-15T08:23:39;51.78;;;21.83;;
75459;SDS011;64039;53.060;9.342;2022-10-15T08:26:05;48.45;;;20.90;;
75459;SDS011;64039;53.060;9.342;2022-10-15T08:28:31;45.40;;;19.88;;
75459;SDS011;64039;53.060;9.342;2022-10-15T08:30:59;48.05;;;20.15;;
75459;SDS011;64039;53.060;9.342;2022-10-15T08:33:26;43.75;;;19.05;;
75459;SDS011;64039;53.060;9.342;2022-10-15T08:35:52;46.83;;;19.48;;
75459;SDS011;64039;53.060;9.342;2022-10-15T08:38:17;49.78;;;20.60;;
75459;SDS011;64039;53.060;9.342;2022-10-15T08:40:50;47.40;;;19.65;;
75459;SDS011;64039;53.060;9.342;2022-10-15T08:43:37;43.70;;;18.90;;
75459;SDS011;64039;53.060;9.342;2022-10-15T08:46:15;40.65;;;18.13;;
75459;SDS011;64039;53.060;9.342;2022-10-15T08:48:45;42.45;;;17.83;;
75459;SDS011;64039;53.060;9.342;2022-10-15T08:51:17;41.42;;;18.02;;
75459;SDS011;64039;53.060;9.342;2022-10-15T08:53:50;43.03;;;18.02;;
75459;SDS011;64039;53.060;9.342;2022-10-15T08:56:36;40.42;;;18.05;;
75459;SDS011;64039;53.060;9.342;2022-10-15T09:02:17;40.30;;;18.13;;
75459;SDS011;64039;53.060;9.342;2022-10-15T09:07:13;45.72;;;18.25;;
75459;SDS011;64039;53.060;9.342;2022-10-15T09:09:54;38.80;;;16.75;;
75459;SDS011;64039;53.060;9.342;2022-10-15T09:12:33;41.25;;;17.40;;
75459;SDS011;64039;53.060;9.342;2022-10-15T09:15:12;37.40;;;17.08;;
75459;SDS011;64039;53.060;9.342;2022-10-15T09:17:42;39.30;;;17.75;;
75459;SDS011;64039;53.060;9.342;2022-10-15T09:20:14;34.35;;;15.57;;
75459;SDS011;64039;53.060;9.342;2022-10-15T09:22:42;36.88;;;16.02;;
75459;SDS011;64039;53.060;9.342;2022-10-15T09:25:20;35.55;;;15.93;;
75459;SDS011;64039;53.060;9.342;2022-10-15T09:27:47;37.38;;;16.67;;
75459;SDS011;64039;53.060;9.342;2022-10-15T09:39:04;35.47;;;16.40;;
75459;SDS011;64039;53.060;9.342;2022-10-15T09:44:35;32.28;;;15.07;;
75459;SDS011;64039;53.060;9.342;2022-10-15T09:47:16;30.70;;;15.38;;
75459;SDS011;64039;53.060;9.342;2022-10-15T09:49:47;36.22;;;17.17;;
75459;SDS011;64039;53.060;9.342;2022-10-15T09:52:22;31.85;;;15.85;;
75459;SDS011;64039;53.060;9.342;2022-10-15T09:55:00;33.70;;;16.02;;
75459;SDS011;64039;53.060;9.342;2022-10-15T09:57:28;34.33;;;16.40;;
75459;SDS011;64039;53.060;9.342;2022-10-15T09:59:58;31.55;;;15.30;;
75459;SDS011;64039;53.060;9.342;2022-10-15T10:02:27;29.10;;;14.02;;
75459;SDS011;64039;53.060;9.342;2022-10-15T10:04:54;31.67;;;14.88;;
75459;SDS011;64039;53.060;9.342;2022-10-15T10:07:27;23.20;;;13.07;;
75459;SDS011;64039;53.060;9.342;2022-10-15T10:10:04;27.15;;;13.80;;
75459;SDS011;64039;53.060;9.342;2022-10-15T10:12:45;29.95;;;13.98;;
75459;SDS011;64039;53.060;9.342;2022-10-15T10:17:59;23.35;;;11.98;;
75459;SDS011;64039;53.060;9.342;2022-10-15T10:20:26;22.85;;;12.13;;
75459;SDS011;64039;53.060;9.342;2022-10-15T10:22:56;24.13;;;13.15;;
75459;SDS011;64039;53.060;9.342;2022-10-15T10:27:56;19.63;;;10.53;;
75459;SDS011;64039;53.060;9.342;2022-10-15T10:30:23;17.58;;;9.25;;
75459;SDS011;64039;53.060;9.342;2022-10-15T10:32:54;17.50;;;8.95;;
75459;SDS011;64039;53.060;9.342;2022-10-15T10:35:23;18.48;;;8.70;;
75459;SDS011;64039;53.060;9.342;2022-10-15T10:38:00;16.15;;;8.30;;
75459;SDS011;64039;53.060;9.342;2022-10-15T10:40:27;15.98;;;7.90;;
75459;SDS011;64039;53.060;9.342;2022-10-15T10:45:51;11.45;;;6.30;;
75459;SDS011;64039;53.060;9.342;2022-10-15T10:48:18;14.10;;;7.32;;
75459;SDS011;64039;53.060;9.342;2022-10-15T10:51:02;12.63;;;6.10;;
75459;SDS011;64039;53.060;9.342;2022-10-15T10:53:32;12.80;;;6.18;;
75459;SDS011;64039;53.060;9.342;2022-10-15T10:56:01;9.18;;;5.25;;
75459;SDS011;64039;53.060;9.342;2022-10-15T10:58:31;10.85;;;5.10;;
75459;SDS011;64039;53.060;9.342;2022-10-15T11:00:58;8.20;;;4.78;;
75459;SDS011;64039;53.060;9.342;2022-10-15T11:06:01;14.00;;;7.10;;
75459;SDS011;64039;53.060;9.342;2022-10-15T11:08:46;14.07;;;6.97;;
75459;SDS011;64039;53.060;9.342;2022-10-15T11:25:36;15.27;;;9.35;;
75459;SDS011;64039;53.060;9.342;2022-10-15T11:31:09;16.35;;;9.95;;
75459;SDS011;64039;53.060;9.342;2022-10-15T11:34:04;20.13;;;11.73;;
75459;SDS011;64039;53.060;9.342;2022-10-15T11:42:22;20.55;;;12.15;;
75459;SDS011;64039;53.060;9.342;2022-10-15T11:50:24;25.60;;;15.05;;
75459;SDS011;64039;53.060;9.342;2022-10-15T11:55:39;27.60;;;16.02;;
75459;SDS011;64039;53.060;9.342;2022-10-15T11:58:10;24.95;;;14.55;;
75459;SDS011;64039;53.060;9.342;2022-10-15T12:00:53;28.63;;;16.25;;
75459;SDS011;64039;53.060;9.342;2022-10-15T12:03:26;28.17;;;15.43;;
75459;SDS011;64039;53.060;9.342;2022-10-15T12:06:05;25.15;;;14.40;;
75459;SDS011;64039;53.060;9.342;2022-10-15T12:08:36;25.60;;;15.60;;
75459;SDS011;64039;53.060;9.342;2022-10-15T12:13:49;26.30;;;15.07;;
75459;SDS011;64039;53.060;9.342;2022-10-15T12:16:45;25.10;;;14.13;;
75459;SDS011;64039;53.060;9.342;2022-10-15T12:25:53;20.67;;;12.15;;
75459;SDS011;64039;53.060;9.342;2022-10-15T12:28:03;18.63;;;11.13;;
75459;SDS011;64039;53.060;9.342;2022-10-15T12:30:37;18.17;;;10.82;;
75459;SDS011;64039;53.060;9.342;2022-10-15T12:35:56;16.08;;;9.60;;
75459;SDS011;64039;53.060;9.342;2022-10-15T12:38:29;18.00;;;11.43;;
75459;SDS011;64039;53.060;9.342;2022-10-15T12:41:01;17.55;;;10.63;;
75459;SDS011;64039;53.060;9.342;2022-10-15T12:43:27;18.40;;;10.18;;
75459;SDS011;64039;53.060;9.342;2022-10-15T12:45:56;16.50;;;10.20;;
75459;SDS011;64039;53.060;9.342;2022-10-15T12:48:37;21.88;;;11.90;;
75459;SDS011;64039;53.060;9.342;2022-10-15T12:53:51;19.33;;;11.23;;
75459;SDS011;64039;53.060;9.342;2022-10-15T12:56:21;16.40;;;10.23;;
75459;SDS011;64039;53.060;9.342;2022-10-15T12:58:52;16.73;;;10.82;;
75459;SDS011;64039;53.060;9.342;2022-10-15T13:08:44;20.00;;;11.55;;
75459;SDS011;64039;53.060;9.342;2022-10-15T13:11:30;15.88;;;10.15;;
75459;SDS011;64039;53.060;9.342;2022-10-15T13:14:00;16.42;;;9.63;;
75459;SDS011;64039;53.060;9.342;2022-10-15T13:16:27;18.52;;;12.02;;
75459;SDS011;64039;53.060;9.342;2022-10-15T13:18:56;17.50;;;10.98;;
75459;SDS011;64039;53.060;9.342;2022-10-15T13:21:45;21.05;;;12.60;;
75459;SDS011;64039;53.060;9.342;2022-10-15T13:24:15;19.88;;;11.73;;
75459;SDS011;64039;53.060;9.342;2022-10-15T13:26:42;22.30;;;12.95;;
75459;SDS011;64039;53.060;9.342;2022-10-15T13:29:19;22.08;;;12.25;;
75459;SDS011;64039;53.060;9.342;2022-10-15T13:31:47;22.70;;;13.10;;
75459;SDS011;64039;53.060;9.342;2022-10-15T13:34:20;20.20;;;11.52;;
75459;SDS011;64039;53.060;9.342;2022-10-15T13:36:49;21.05;;;12.68;;
75459;SDS011;64039;53.060;9.342;2022-10-15T13:39:36;21.42;;;12.68;;
75459;SDS011;64039;53.060;9.342;2022-10-15T13:42:22;24.95;;;12.38;;
75459;SDS011;64039;53.060;9.342;2022-10-15T13:47:47;17.38;;;11.00;;
75459;SDS011;64039;53.060;9.342;2022-10-15T13:52:50;16.27;;;10.20;;
75459;SDS011;64039;53.060;9.342;2022-10-15T13:55:19;18.25;;;10.55;;
75459;SDS011;64039;53.060;9.342;2022-10-15T13:57:50;15.03;;;9.57;;
75459;SDS011;64039;53.060;9.342;2022-10-15T14:00:25;16.42;;;10.32;;
75459;SDS011;64039;53.060;9.342;2022-10-15T14:03:06;17.67;;;10.23;;
75459;SDS011;64039;53.060;9.342;2022-10-15T14:05:31;14.43;;;9.27;;
75459;SDS011;64039;53.060;9.342;2022-10-15T14:07:58;12.82;;;8.75;;
75459;SDS011;64039;53.060;9.342;2022-10-15T14:10:23;12.07;;;8.85;;
75459;SDS011;64039;53.060;9.342;2022-10-15T14:12:49;15.48;;;9.55;;
75459;SDS011;64039;53.060;9.342;2022-10-15T14:18:11;13.70;;;9.00;;
75459;SDS011;64039;53.060;9.342;2022-10-15T14:20:42;9.82;;;7.47;;
75459;SDS011;64039;53.060;9.342;2022-10-15T14:23:22;16.65;;;9.50;;
75459;SDS011;64039;53.060;9.342;2022-10-15T14:25:53;14.75;;;8.68;;
75459;SDS011;64039;53.060;9.342;2022-10-15T14:28:21;13.45;;;9.20;;
75459;SDS011;64039;53.060;9.342;2022-10-15T14:30:48;13.10;;;8.55;;
75459;SDS011;64039;53.060;9.342;2022-10-15T14:33:39;13.93;;;7.78;;
75459;SDS011;64039;53.060;9.342;2022-10-15T14:36:08;12.95;;;8.20;;
75459;SDS011;64039;53.060;9.342;2022-10-15T14:38:35;14.43;;;9.38;;
75459;SDS011;64039;53.060;9.342;2022-10-15T14:41:05;15.60;;;9.85;;
75459;SDS011;64039;53.060;9.342;2022-10-15T14:43:44;14.35;;;9.68;;
75459;SDS011;64039;53.060;9.342;2022-10-15T14:46:14;15.25;;;10.10;;
75459;SDS011;64039;53.060;9.342;2022-10-15T14:48:44;15.82;;;9.30;;
75459;SDS011;64039;53.060;9.342;2022-10-15T14:51:15;14.52;;;10.10;;
75459;SDS011;64039;53.060;9.342;2022-10-15T14:53:46;14.05;;;10.00;;
75459;SDS011;64039;53.060;9.342;2022-10-15T14:56:16;15.25;;;9.32;;
75459;SDS011;64039;53.060;9.342;2022-10-15T14:58:52;13.75;;;9.05;;
75459;SDS011;64039;53.060;9.342;2022-10-15T15:01:20;16.45;;;8.82;;
75459;SDS011;64039;53.060;9.342;2022-10-15T15:03:47;15.57;;;7.93;;
75459;SDS011;64039;53.060;9.342;2022-10-15T15:06:14;16.40;;;8.43;;
75459;SDS011;64039;53.060;9.342;2022-10-15T15:08:40;18.08;;;8.48;;
75459;SDS011;64039;53.060;9.342;2022-10-15T15:11:06;14.18;;;7.88;;
75459;SDS011;64039;53.060;9.342;2022-10-15T15:13:40;12.13;;;8.10;;
75459;SDS011;64039;53.060;9.342;2022-10-15T15:16:08;11.98;;;7.15;;
75459;SDS011;64039;53.060;9.342;2022-10-15T15:18:36;12.65;;;7.32;;
75459;SDS011;64039;53.060;9.342;2022-10-15T15:21:03;11.85;;;7.03;;
75459;SDS011;64039;53.060;9.342;2022-10-15T15:23:31;10.27;;;6.47;;
75459;SDS011;64039;53.060;9.342;2022-10-15T15:25:58;12.95;;;6.50;;
75459;SDS011;64039;53.060;9.342;2022-10-15T15:28:25;12.57;;;6.03;;
75459;SDS011;64039;53.060;9.342;2022-10-15T15:31:01;7.78;;;5.65;;
75459;SDS011;64039;53.060;9.342;2022-10-15T15:33:29;6.57;;;4.82;;
75459;SDS011;64039;53.060;9.342;2022-10-15T15:38:37;13.45;;;5.20;;
75459;SDS011;64039;53.060;9.342;2022-10-15T15:41:08;12.10;;;5.55;;
75459;SDS011;64039;53.060;9.342;2022-10-15T15:43:36;12.80;;;5.22;;
75459;SDS011;64039;53.060;9.342;2022-10-15T15:46:02;7.65;;;5.15;;
75459;SDS011;64039;53.060;9.342;2022-10-15T15:48:28;9.98;;;5.32;;
75459;SDS011;64039;53.060;9.342;2022-10-15T15:50:55;9.57;;;5.70;;
75459;SDS011;64039;53.060;9.342;2022-10-15T15:53:25;6.85;;;4.95;;
75459;SDS011;64039;53.060;9.342;2022-10-15T15:55:51;8.00;;;4.82;;
75459;SDS011;64039;53.060;9.342;2022-10-15T15:58:16;9.63;;;4.90;;
75459;SDS011;64039;53.060;9.342;2022-10-15T16:00:41;8.52;;;5.70;;
75459;SDS011;64039;53.060;9.342;2022-10-15T16:03:07;8.27;;;5.47;;
75459;SDS011;64039;53.060;9.342;2022-10-15T16:05:37;6.78;;;4.88;;
75459;SDS011;64039;53.060;9.342;2022-10-15T16:08:03;9.65;;;4.78;;
75459;SDS011;64039;53.060;9.342;2022-10-15T16:10:29;9.05;;;5.38;;
75459;SDS011;64039;53.060;9.342;2022-10-15T16:12:54;13.07;;;7.97;;
75459;SDS011;64039;53.060;9.342;2022-10-15T16:15:20;8.75;;;5.45;;
75459;SDS011;64039;53.060;9.342;2022-10-15T16:17:46;8.52;;;5.38;;
75459;SDS011;64039;53.060;9.342;2022-10-15T16:20:11;8.57;;;5.95;;
75459;SDS011;64039;53.060;9.342;2022-10-15T16:22:37;8.43;;;5.18;;
75459;SDS011;64039;53.060;9.342;2022-10-15T16:25:03;7.97;;;4.50;;
75459;SDS011;64039;53.060;9.342;2022-10-15T16:27:29;7.10;;;4.60;;
75459;SDS011;64039;53.060;9.342;2022-10-15T16:29:54;7.30;;;4.82;;
75459;SDS011;64039;53.060;9.342;2022-10-15T16:32:19;6.53;;;4.28;;
75459;SDS011;64039;53.060;9.342;2022-10-15T16:34:45;10.00;;;4.47;;
75459;SDS011;64039;53.060;9.342;2022-10-15T16:37:10;7.35;;;4.25;;